Stanley, United Kingdom
Current Conditions -  °F | °C
As of 2:20 AM on Sunday 26 Oct 2014 (Local Time) from EGNT Reporting Station
Broken Clouds Broken Clouds  
Wind Chill: 13°   Ceiling: 4900
Heat Index: 13°   Visibility: 6mi
Dew Point:   Wind: 15mph
Humidity: 63%   Direction: 230°SW
Pressure: 29.8"   Gusts: 26mph
Location:  54.87°N, 1.7°W
Report Text: EGNT 260120Z 23013G23KT 9999 FEW040 BKN049 13/06 Q1009
Loading
Personal Weather Stations






























Interactive Weather Map
Tropical Storm Tracking
New forecast layout! Learn more

10-Day Weather Forecast

Advertisements
Track Severe Weather on mobile